createdAt,value
2017-12-26T00:01:59.794Z,89.20
2017-12-26T00:04:28.165Z,89.60
2017-12-26T00:06:56.519Z,89.60
2017-12-26T00:09:24.093Z,89.60
2017-12-26T00:11:52.472Z,89.70
2017-12-26T00:14:20.799Z,89.30
2017-12-26T00:16:48.427Z,89.30
2017-12-26T00:19:16.749Z,89.50
2017-12-26T00:21:44.305Z,89.40
2017-12-26T00:24:11.912Z,90.10
2017-12-26T00:26:40.245Z,90.10
2017-12-26T00:29:07.802Z,89.70
2017-12-26T00:31:35.397Z,89.00
2017-12-26T00:34:02.994Z,88.90
2017-12-26T00:36:30.553Z,88.40
2017-12-26T00:38:58.165Z,89.70
2017-12-26T00:41:25.733Z,89.20
2017-12-26T00:43:53.294Z,89.40
2017-12-26T00:46:20.919Z,89.10
2017-12-26T00:48:48.485Z,89.30
2017-12-26T00:51:16.040Z,90.10
2017-12-26T00:53:43.664Z,89.60
2017-12-26T00:56:12.029Z,90.00
2017-12-26T00:58:39.585Z,90.00
2017-12-26T01:01:07.183Z,89.70
2017-12-26T01:03:34.774Z,89.30
2017-12-26T01:06:02.390Z,89.40
2017-12-26T01:08:30.713Z,89.30
2017-12-26T01:10:58.313Z,89.30
2017-12-26T01:13:25.889Z,89.30
2017-12-26T01:15:54.261Z,88.70
2017-12-26T01:18:22.619Z,88.50
2017-12-26T01:20:50.186Z,88.50
2017-12-26T01:23:17.804Z,89.30
2017-12-26T01:25:45.371Z,88.20
2017-12-26T01:28:12.961Z,88.50
2017-12-26T01:30:40.526Z,88.30
2017-12-26T01:33:08.121Z,89.10
2017-12-26T01:35:35.701Z,89.70
2017-12-26T01:38:03.281Z,89.60
2017-12-26T01:40:30.886Z,89.50
2017-12-26T01:42:59.353Z,89.30
2017-12-26T01:45:26.913Z,89.10
2017-12-26T01:47:58.308Z,89.10
2017-12-26T01:50:25.877Z,89.00
2017-12-26T01:52:53.486Z,88.40
2017-12-26T01:55:21.050Z,88.70
2017-12-26T01:57:48.619Z,88.90
2017-12-26T02:00:16.231Z,88.90
2017-12-26T02:02:43.795Z,88.50
2017-12-26T02:05:11.365Z,88.20
2017-12-26T02:07:38.964Z,88.40
2017-12-26T02:10:06.544Z,88.40
2017-12-26T02:12:34.920Z,88.60
2017-12-26T02:15:03.247Z,88.60
2017-12-26T02:17:30.834Z,88.50
2017-12-26T02:19:58.435Z,88.40
2017-12-26T02:22:26.025Z,88.60
2017-12-26T02:24:53.593Z,88.60
2017-12-26T02:27:21.195Z,88.40
2017-12-26T02:29:49.530Z,88.60
2017-12-26T02:32:17.140Z,88.60
2017-12-26T02:34:46.402Z,87.90
2017-12-26T02:37:14.003Z,87.80
2017-12-26T02:39:42.336Z,88.70
2017-12-26T02:42:09.948Z,88.70
2017-12-26T02:44:37.530Z,88.20
2017-12-26T02:47:05.167Z,88.70
2017-12-26T02:49:33.481Z,89.10
2017-12-26T02:52:01.038Z,89.00
2017-12-26T02:54:28.656Z,88.70
2017-12-26T02:56:56.219Z,89.10
2017-12-26T02:59:24.553Z,89.10
2017-12-26T03:01:52.155Z,89.10
2017-12-26T03:04:19.762Z,88.90
2017-12-26T03:06:47.356Z,89.40
2017-12-26T03:09:14.926Z,88.90
2017-12-26T03:11:42.540Z,89.10
2017-12-26T03:14:10.125Z,89.60
2017-12-26T03:16:37.769Z,89.30
2017-12-26T03:19:05.399Z,88.80
2017-12-26T03:21:33.030Z,89.10
2017-12-26T03:24:00.638Z,88.90
2017-12-26T03:26:28.197Z,88.90
2017-12-26T03:28:55.769Z,88.30
2017-12-26T03:31:23.478Z,89.00
2017-12-26T03:33:51.036Z,89.30
2017-12-26T03:36:18.587Z,90.10
2017-12-26T03:38:46.191Z,90.00
2017-12-26T03:41:13.797Z,89.60
2017-12-26T03:43:41.392Z,89.80
2017-12-26T03:46:09.749Z,89.60
2017-12-26T03:48:38.124Z,89.20
2017-12-26T03:51:05.740Z,89.20
2017-12-26T03:53:33.324Z,88.30
2017-12-26T03:56:00.879Z,88.40
2017-12-26T03:58:28.482Z,88.20
2017-12-26T04:00:56.061Z,87.60
2017-12-26T04:03:24.426Z,87.60
2017-12-26T04:05:52.021Z,87.60
2017-12-26T04:08:19.622Z,87.30
2017-12-26T04:10:47.230Z,87.20
2017-12-26T04:13:14.807Z,87.00
2017-12-26T04:15:42.401Z,87.00
2017-12-26T04:18:09.973Z,87.00
2017-12-26T04:20:37.566Z,86.60
2017-12-26T04:23:05.929Z,86.90
2017-12-26T04:25:33.535Z,86.90
2017-12-26T04:28:01.120Z,86.50
2017-12-26T04:30:28.730Z,86.60
2017-12-26T04:32:57.089Z,86.30
2017-12-26T04:35:24.702Z,86.30
2017-12-26T04:37:52.316Z,86.40
2017-12-26T04:40:19.871Z,86.40
2017-12-26T04:42:47.514Z,86.70
2017-12-26T04:45:15.101Z,86.50
2017-12-26T04:47:42.702Z,86.50
2017-12-26T04:50:10.322Z,86.40
2017-12-26T04:52:38.681Z,86.40
2017-12-26T04:55:06.246Z,86.40
2017-12-26T04:57:33.852Z,86.20
2017-12-26T05:00:01.436Z,86.10
2017-12-26T05:02:29.765Z,85.70
2017-12-26T05:04:58.154Z,85.90
2017-12-26T05:07:26.480Z,85.80
2017-12-26T05:09:54.073Z,85.80
2017-12-26T05:12:21.670Z,85.70
2017-12-26T05:14:49.240Z,85.20
2017-12-26T05:17:16.806Z,85.10
2017-12-26T05:19:44.404Z,85.50
2017-12-26T05:22:11.972Z,85.40
2017-12-26T05:24:39.579Z,85.60
2017-12-26T05:27:07.153Z,85.60
2017-12-26T05:29:35.469Z,85.70
2017-12-26T05:32:03.085Z,85.60
2017-12-26T05:34:30.669Z,85.60
2017-12-26T05:36:58.229Z,85.80
2017-12-26T05:39:25.828Z,86.00
2017-12-26T05:41:53.429Z,86.00
2017-12-26T05:44:21.005Z,85.50
2017-12-26T05:46:48.617Z,85.20
2017-12-26T05:49:16.246Z,85.30
2017-12-26T05:51:43.821Z,85.10
2017-12-26T05:54:11.390Z,84.60
2017-12-26T05:56:38.992Z,84.70
2017-12-26T05:59:06.583Z,85.10
2017-12-26T06:01:34.176Z,85.70
2017-12-26T06:04:01.745Z,85.50
2017-12-26T06:06:29.369Z,86.20
2017-12-26T06:08:56.930Z,85.40
2017-12-26T06:11:24.542Z,85.50
2017-12-26T06:13:52.125Z,85.80
2017-12-26T06:16:19.723Z,86.00
2017-12-26T06:18:47.314Z,85.80
2017-12-26T06:21:14.944Z,86.20
2017-12-26T06:23:42.529Z,86.80
2017-12-26T06:26:10.901Z,87.30
2017-12-26T06:28:38.465Z,87.20
2017-12-26T06:31:06.021Z,87.20
2017-12-26T06:33:33.618Z,86.90
2017-12-26T06:36:01.198Z,86.80
2017-12-26T06:38:28.816Z,86.70
2017-12-26T06:40:57.151Z,86.90
2017-12-26T06:43:24.748Z,86.90
2017-12-26T06:45:52.365Z,87.00
2017-12-26T06:48:19.922Z,87.00
2017-12-26T06:50:47.500Z,86.70
2017-12-26T06:53:15.107Z,86.70
2017-12-26T06:55:43.486Z,87.10
2017-12-26T06:58:11.068Z,87.20
2017-12-26T07:00:38.689Z,89.00
2017-12-26T07:03:07.030Z,86.90
2017-12-26T07:05:35.392Z,84.90
2017-12-26T07:08:02.941Z,85.50
2017-12-26T07:10:30.498Z,82.90
2017-12-26T07:12:58.084Z,80.10
2017-12-26T07:15:25.705Z,78.10
2017-12-26T07:17:54.017Z,76.20
2017-12-26T07:20:27.357Z,76.20
2017-12-26T07:22:54.921Z,74.80
2017-12-26T07:25:22.510Z,74.40
2017-12-26T07:27:50.113Z,73.70
2017-12-26T07:30:17.701Z,73.60
2017-12-26T07:32:45.305Z,73.70
2017-12-26T07:35:12.885Z,73.30
2017-12-26T07:37:40.440Z,73.20
2017-12-26T07:40:08.047Z,72.90
2017-12-26T07:42:35.592Z,72.60
2017-12-26T07:45:03.157Z,73.10
2017-12-26T07:47:30.762Z,72.70
2017-12-26T07:49:58.315Z,72.70
2017-12-26T07:52:26.644Z,72.40
2017-12-26T07:54:54.245Z,72.40
2017-12-26T07:57:22.568Z,71.60
2017-12-26T07:59:50.167Z,71.60
2017-12-26T08:02:17.765Z,71.50
2017-12-26T08:04:45.319Z,70.90
2017-12-26T08:07:12.935Z,70.50
2017-12-26T08:09:40.485Z,70.00
2017-12-26T08:12:08.061Z,69.40
2017-12-26T08:14:35.661Z,69.30
2017-12-26T08:17:03.216Z,68.80
2017-12-26T08:19:31.581Z,68.00
2017-12-26T08:21:59.949Z,68.20
2017-12-26T08:24:27.554Z,68.20
2017-12-26T08:26:55.122Z,68.40
2017-12-26T08:29:22.688Z,68.60
2017-12-26T08:31:50.287Z,68.60
2017-12-26T08:34:17.854Z,68.60
2017-12-26T08:36:45.467Z,68.40
2017-12-26T08:39:13.026Z,67.90
2017-12-26T08:41:40.634Z,67.40
2017-12-26T08:44:08.197Z,67.10
2017-12-26T08:46:35.761Z,67.30
2017-12-26T08:49:03.353Z,67.30
2017-12-26T08:51:30.953Z,66.10
2017-12-26T08:53:58.513Z,65.80
2017-12-26T08:56:26.082Z,65.40
2017-12-26T08:58:53.664Z,65.20
2017-12-26T09:01:21.221Z,65.60
2017-12-26T09:03:49.586Z,63.70
2017-12-26T09:06:17.133Z,63.70
2017-12-26T09:08:44.714Z,63.60
2017-12-26T09:11:12.270Z,63.40
2017-12-26T09:13:39.865Z,63.40
2017-12-26T09:16:08.225Z,63.10
2017-12-26T09:18:35.765Z,63.10
2017-12-26T09:21:03.395Z,63.10
2017-12-26T09:23:30.964Z,62.90
2017-12-26T09:25:58.524Z,62.70
2017-12-26T09:28:26.123Z,62.50
2017-12-26T09:30:53.691Z,62.20
2017-12-26T09:33:22.076Z,61.80
2017-12-26T09:35:50.418Z,62.20
2017-12-26T09:38:18.033Z,62.20
2017-12-26T09:40:45.593Z,61.80
2017-12-26T09:43:13.143Z,60.90
2017-12-26T09:45:41.646Z,60.60
2017-12-26T09:48:09.306Z,60.40
2017-12-26T09:50:36.860Z,60.20
2017-12-26T09:53:04.452Z,59.90
2017-12-26T09:55:32.031Z,59.60
2017-12-26T09:57:59.610Z,59.60
2017-12-26T10:00:27.212Z,59.80
2017-12-26T10:02:54.793Z,59.60
2017-12-26T10:05:22.388Z,58.50
2017-12-26T10:07:49.978Z,57.50
2017-12-26T10:10:17.529Z,57.60
2017-12-26T10:12:45.915Z,57.00
2017-12-26T10:15:14.233Z,56.80
2017-12-26T10:17:41.802Z,56.70
2017-12-26T10:20:09.394Z,56.60
2017-12-26T10:22:36.970Z,56.70
2017-12-26T10:25:05.334Z,56.40
2017-12-26T10:27:32.881Z,56.40
2017-12-26T10:30:00.546Z,56.80
2017-12-26T10:32:28.121Z,57.00
2017-12-26T10:34:56.457Z,56.90
2017-12-26T10:37:24.046Z,56.90
2017-12-26T10:39:51.659Z,56.90
2017-12-26T10:42:19.238Z,56.50
2017-12-26T10:44:46.995Z,56.40
2017-12-26T10:47:14.605Z,56.10
2017-12-26T10:49:42.214Z,56.00
2017-12-26T10:52:09.838Z,56.40
2017-12-26T10:54:38.170Z,56.70
2017-12-26T10:57:05.789Z,56.70
2017-12-26T10:59:33.364Z,56.60
2017-12-26T11:02:00.934Z,56.30
2017-12-26T11:04:28.570Z,56.10
2017-12-26T11:06:56.901Z,55.70
2017-12-26T11:09:24.466Z,55.50
2017-12-26T11:11:52.071Z,53.30
2017-12-26T11:14:19.658Z,53.00
2017-12-26T11:16:47.218Z,53.40
2017-12-26T11:19:14.831Z,52.40
2017-12-26T11:21:42.425Z,52.70
2017-12-26T11:24:10.020Z,53.30
2017-12-26T11:26:37.613Z,52.80
2017-12-26T11:29:05.971Z,52.70
2017-12-26T11:31:33.671Z,52.50
2017-12-26T11:34:02.031Z,52.30
2017-12-26T11:36:30.417Z,52.80
2017-12-26T11:38:57.983Z,52.80
2017-12-26T11:41:26.335Z,55.20
2017-12-26T11:43:53.951Z,55.00
2017-12-26T11:46:21.515Z,57.30
2017-12-26T11:48:49.926Z,60.00
2017-12-26T11:51:17.494Z,60.00
2017-12-26T11:53:45.131Z,61.50
2017-12-26T11:56:12.805Z,63.00
2017-12-26T11:58:40.379Z,64.30
2017-12-26T12:01:07.984Z,64.00
2017-12-26T12:03:35.586Z,64.60
2017-12-26T12:06:03.966Z,64.50
2017-12-26T12:08:32.293Z,65.50
2017-12-26T12:11:00.659Z,68.50
2017-12-26T12:13:28.233Z,68.40
2017-12-26T12:15:56.594Z,67.60
2017-12-26T12:18:24.167Z,67.60
2017-12-26T12:20:52.539Z,67.20
2017-12-26T12:23:20.133Z,67.10
2017-12-26T12:25:47.748Z,67.90
2017-12-26T12:28:15.378Z,69.10
2017-12-26T12:30:42.966Z,70.00
2017-12-26T12:33:10.554Z,71.70
2017-12-26T12:35:38.930Z,73.30
2017-12-26T12:38:06.484Z,73.30
2017-12-26T12:40:34.081Z,74.20
2017-12-26T12:43:01.686Z,74.30
2017-12-26T12:45:29.289Z,73.20
2017-12-26T12:47:56.931Z,73.40
2017-12-26T12:50:25.272Z,74.20
2017-12-26T12:52:52.830Z,74.20
2017-12-26T12:55:20.486Z,75.50
2017-12-26T12:57:48.092Z,77.00
2017-12-26T13:00:16.463Z,78.10
2017-12-26T13:02:44.066Z,78.10
2017-12-26T13:05:12.433Z,76.90
2017-12-26T13:07:39.995Z,76.80
2017-12-26T13:10:08.360Z,75.50
2017-12-26T13:12:36.760Z,74.80
2017-12-26T13:15:04.346Z,74.70
2017-12-26T13:17:31.908Z,74.30
2017-12-26T13:19:59.485Z,72.70
2017-12-26T13:22:27.102Z,71.70
2017-12-26T13:24:55.436Z,70.80
2017-12-26T13:27:23.038Z,70.80
2017-12-26T13:29:51.425Z,70.70
2017-12-26T13:32:19.036Z,70.70
2017-12-26T13:34:46.613Z,71.50
2017-12-26T13:37:14.216Z,76.10
2017-12-26T13:39:41.816Z,79.60
2017-12-26T13:42:09.381Z,79.40
2017-12-26T13:44:36.947Z,80.10
2017-12-26T13:47:04.553Z,79.90
2017-12-26T13:49:32.112Z,78.60
2017-12-26T13:51:59.702Z,78.20
2017-12-26T13:54:27.289Z,77.90
2017-12-26T13:56:54.877Z,78.00
2017-12-26T13:59:23.217Z,77.40
2017-12-26T14:01:50.855Z,77.40
2017-12-26T14:04:18.401Z,76.90
2017-12-26T14:06:45.994Z,76.70
2017-12-26T14:09:13.554Z,72.80
2017-12-26T14:11:41.122Z,72.80
2017-12-26T14:14:08.737Z,72.40
2017-12-26T14:16:37.076Z,71.50
2017-12-26T14:19:04.676Z,71.50
2017-12-26T14:21:32.236Z,71.70
2017-12-26T14:23:59.834Z,71.00
2017-12-26T14:26:27.442Z,71.20
2017-12-26T14:28:55.770Z,71.60
2017-12-26T14:31:23.356Z,71.50
2017-12-26T14:33:50.901Z,71.90
2017-12-26T14:36:18.501Z,72.00
2017-12-26T14:38:46.831Z,71.30
2017-12-26T14:41:14.435Z,71.30
2017-12-26T14:43:42.066Z,71.70
2017-12-26T14:46:09.646Z,72.20
2017-12-26T14:48:37.209Z,71.70
2017-12-26T14:51:04.813Z,71.70
2017-12-26T14:53:32.425Z,71.80
2017-12-26T14:55:59.986Z,71.90
2017-12-26T14:58:27.533Z,72.20
2017-12-26T15:00:55.157Z,71.90
2017-12-26T15:03:22.701Z,72.30
2017-12-26T15:05:50.266Z,72.70
2017-12-26T15:08:17.857Z,72.60
2017-12-26T15:10:46.169Z,72.40
2017-12-26T15:13:13.784Z,72.40
2017-12-26T15:15:41.398Z,73.20
2017-12-26T15:18:09.755Z,72.70
2017-12-26T15:20:37.317Z,72.70
2017-12-26T15:23:04.915Z,73.00
2017-12-26T15:25:33.269Z,73.50
2017-12-26T15:28:00.864Z,73.50
2017-12-26T15:30:28.435Z,73.50
2017-12-26T15:32:55.981Z,73.70
2017-12-26T15:35:24.359Z,74.20
2017-12-26T15:37:51.926Z,74.20
2017-12-26T15:40:19.494Z,74.50
2017-12-26T15:42:47.084Z,74.50
2017-12-26T15:45:14.644Z,74.80
2017-12-26T15:47:42.228Z,74.60
2017-12-26T15:50:09.784Z,75.20
2017-12-26T15:52:37.394Z,75.30
2017-12-26T15:55:04.981Z,75.00
2017-12-26T15:57:32.572Z,75.10
2017-12-26T16:00:00.150Z,75.10
2017-12-26T16:02:28.525Z,74.60
2017-12-26T16:04:56.857Z,74.60
2017-12-26T16:07:24.469Z,74.60
2017-12-26T16:09:52.804Z,75.10
2017-12-26T16:12:20.375Z,75.10
2017-12-26T16:14:47.990Z,74.80
2017-12-26T16:17:16.314Z,76.10
2017-12-26T16:19:43.912Z,75.50
2017-12-26T16:22:12.266Z,76.50
2017-12-26T16:24:39.895Z,76.50
2017-12-26T16:27:07.460Z,76.90
2017-12-26T16:29:35.046Z,77.20
2017-12-26T16:32:03.517Z,77.30
2017-12-26T16:34:31.078Z,78.00
2017-12-26T16:36:58.691Z,77.80
2017-12-26T16:39:27.084Z,78.20
2017-12-26T16:41:55.441Z,78.70
2017-12-26T16:44:23.786Z,79.20
2017-12-26T16:46:51.408Z,79.10
2017-12-26T16:49:19.005Z,79.20
2017-12-26T16:51:46.551Z,79.70
2017-12-26T16:54:14.181Z,80.00
2017-12-26T16:56:41.803Z,79.70
2017-12-26T16:59:09.353Z,80.10
2017-12-26T17:01:36.939Z,80.20
2017-12-26T17:04:04.530Z,80.50
2017-12-26T17:06:32.082Z,81.50
2017-12-26T17:08:59.640Z,80.70
2017-12-26T17:11:27.243Z,81.30
2017-12-26T17:13:54.813Z,81.60
2017-12-26T17:16:24.648Z,82.00
2017-12-26T17:18:54.249Z,82.30
2017-12-26T17:21:24.047Z,83.00
2017-12-26T17:23:54.729Z,82.30
2017-12-26T17:26:27.086Z,82.90
2017-12-26T17:28:57.155Z,82.70
2017-12-26T17:31:27.013Z,82.60
2017-12-26T17:33:55.537Z,82.80
2017-12-26T17:36:23.107Z,83.10
2017-12-26T17:38:51.496Z,82.80
2017-12-26T17:41:19.073Z,82.90
2017-12-26T17:43:46.659Z,82.80
2017-12-26T17:46:15.037Z,83.10
2017-12-26T17:48:42.599Z,83.10
2017-12-26T17:51:10.217Z,83.50
2017-12-26T17:53:37.813Z,83.60
2017-12-26T17:56:05.408Z,83.40
2017-12-26T17:58:32.960Z,83.50
2017-12-26T18:01:01.311Z,83.20
2017-12-26T18:03:28.873Z,83.10
2017-12-26T18:05:56.477Z,82.80
2017-12-26T18:08:24.076Z,82.80
2017-12-26T18:10:51.696Z,82.90
2017-12-26T18:13:19.283Z,83.00
2017-12-26T18:15:46.895Z,83.10
2017-12-26T18:18:15.247Z,82.80
2017-12-26T18:20:42.855Z,82.80
2017-12-26T18:23:10.427Z,82.30
2017-12-26T18:25:38.002Z,82.70
2017-12-26T18:28:05.614Z,82.40
2017-12-26T18:30:33.969Z,82.60
2017-12-26T18:33:01.533Z,82.50
2017-12-26T18:35:29.133Z,82.30
2017-12-26T18:37:56.712Z,85.30
2017-12-26T18:40:24.264Z,82.60
2017-12-26T18:42:51.871Z,82.80
2017-12-26T18:45:19.444Z,83.10
2017-12-26T18:47:47.031Z,83.30
2017-12-26T18:50:15.388Z,83.50
2017-12-26T18:52:43.749Z,83.30
2017-12-26T18:55:11.313Z,83.30
2017-12-26T18:57:39.705Z,83.20
2017-12-26T19:00:07.267Z,83.00
2017-12-26T19:02:34.869Z,83.00
2017-12-26T19:05:02.418Z,82.90
2017-12-26T19:07:30.780Z,82.60
2017-12-26T19:09:59.100Z,82.60
2017-12-26T19:12:26.692Z,82.50
2017-12-26T19:14:54.317Z,82.50
2017-12-26T19:17:21.868Z,82.40
2017-12-26T19:19:49.450Z,81.30
2017-12-26T19:22:17.812Z,80.70
2017-12-26T19:24:45.368Z,80.70
2017-12-26T19:27:12.969Z,79.90
2017-12-26T19:29:40.536Z,78.60
2017-12-26T19:32:08.137Z,79.10
2017-12-26T19:34:36.443Z,77.50
2017-12-26T19:37:04.046Z,77.50
2017-12-26T19:39:31.627Z,76.20
2017-12-26T19:41:59.232Z,75.90
2017-12-26T19:44:26.781Z,75.10
2017-12-26T19:46:54.338Z,74.50
2017-12-26T19:49:21.925Z,74.20
2017-12-26T19:51:49.536Z,74.10
2017-12-26T19:54:17.101Z,74.40
2017-12-26T19:56:44.678Z,74.30
2017-12-26T19:59:12.294Z,74.50
2017-12-26T20:01:39.857Z,75.10
2017-12-26T20:04:07.420Z,76.10
2017-12-26T20:06:35.796Z,73.30
2017-12-26T20:09:03.382Z,73.20
2017-12-26T20:11:30.980Z,74.00
2017-12-26T20:13:58.540Z,74.00
2017-12-26T20:16:26.088Z,73.20
2017-12-26T20:18:53.698Z,72.30
2017-12-26T20:21:21.297Z,72.00
2017-12-26T20:23:48.871Z,71.60
2017-12-26T20:26:16.432Z,70.30
2017-12-26T20:28:49.722Z,69.50
2017-12-26T20:31:17.306Z,68.80
2017-12-26T20:33:44.921Z,69.00
2017-12-26T20:36:13.236Z,67.90
2017-12-26T20:38:40.815Z,67.80
2017-12-26T20:41:08.439Z,68.30
2017-12-26T20:43:36.004Z,68.30
2017-12-26T20:46:03.569Z,68.20
2017-12-26T20:48:31.158Z,68.50
2017-12-26T20:50:58.772Z,68.20
2017-12-26T20:53:26.333Z,68.40
2017-12-26T20:55:53.895Z,68.30
2017-12-26T20:58:21.492Z,68.90
2017-12-26T21:00:49.056Z,68.60
2017-12-26T21:03:20.503Z,68.80
2017-12-26T21:05:48.072Z,69.00
2017-12-26T21:08:15.663Z,68.70
2017-12-26T21:10:43.250Z,68.80
2017-12-26T21:13:10.804Z,69.00
2017-12-26T21:15:38.399Z,69.10
2017-12-26T21:18:05.997Z,69.10
2017-12-26T21:20:33.598Z,68.80
2017-12-26T21:23:01.147Z,68.90
2017-12-26T21:25:28.748Z,68.80
2017-12-26T21:27:56.338Z,68.50
2017-12-26T21:30:23.950Z,68.40
2017-12-26T21:32:51.524Z,67.90
2017-12-26T21:35:19.089Z,68.00
2017-12-26T21:37:46.690Z,67.50
2017-12-26T21:40:15.027Z,67.00
2017-12-26T21:42:42.613Z,66.90
2017-12-26T21:45:10.164Z,66.80
2017-12-26T21:47:37.769Z,66.80
2017-12-26T21:50:06.080Z,67.40
2017-12-26T21:52:33.641Z,66.70
2017-12-26T21:55:01.218Z,66.60
2017-12-26T21:57:28.818Z,67.30
2017-12-26T21:59:57.148Z,66.70
2017-12-26T22:02:24.751Z,66.70
2017-12-26T22:04:53.080Z,65.60
2017-12-26T22:07:20.678Z,65.60
2017-12-26T22:09:48.266Z,64.90
2017-12-26T22:12:16.608Z,65.90
2017-12-26T22:14:44.231Z,65.90
2017-12-26T22:17:11.786Z,65.40
2017-12-26T22:19:39.382Z,65.50
2017-12-26T22:22:06.952Z,65.40
2017-12-26T22:24:34.563Z,65.60
2017-12-26T22:27:02.121Z,66.00
2017-12-26T22:29:29.708Z,66.50
2017-12-26T22:31:57.257Z,66.90
2017-12-26T22:34:24.864Z,67.40
2017-12-26T22:36:52.430Z,68.50
2017-12-26T22:39:20.017Z,69.00
2017-12-26T22:41:48.391Z,69.80
2017-12-26T22:44:16.725Z,69.90
2017-12-26T22:46:44.284Z,69.90
2017-12-26T22:49:11.890Z,70.20
2017-12-26T22:51:40.249Z,68.70
2017-12-26T22:54:08.609Z,68.30
2017-12-26T22:56:36.152Z,68.20
2017-12-26T22:59:03.748Z,69.10
2017-12-26T23:01:31.301Z,67.40
2017-12-26T23:03:58.874Z,66.50
2017-12-26T23:06:27.237Z,67.80
2017-12-26T23:08:54.784Z,67.80
2017-12-26T23:11:22.384Z,67.40
2017-12-26T23:14:05.586Z,68.90
2017-12-26T23:16:38.804Z,68.80
2017-12-26T23:19:06.380Z,69.10
2017-12-26T23:21:33.988Z,70.00
2017-12-26T23:24:07.371Z,70.30
2017-12-26T23:26:40.488Z,69.90
2017-12-26T23:29:13.776Z,70.50
2017-12-26T23:31:46.980Z,70.90
2017-12-26T23:34:30.210Z,71.10
2017-12-26T23:37:03.349Z,71.50
2017-12-26T23:39:36.648Z,71.70
2017-12-26T23:42:10.860Z,71.80
2017-12-26T23:44:44.151Z,71.70
2017-12-26T23:47:17.293Z,72.10
2017-12-26T23:49:51.396Z,73.10
2017-12-26T23:52:24.571Z,73.00
2017-12-26T23:54:57.828Z,73.40
2017-12-26T23:57:31.812Z,74.10
